Time;durP1;ratioP1;P1;durP2;ratioP2;P2;SDS_P1;SDS_P2;PMS_P1;PMS_P2;Temp;Humidity;BMP_temperature;BMP_pressure;BME280_temperature;BME280_humidity;BME280_pressure;Samples;Min_cycle;Max_cycle;Signal;HPM_P1;HPM_P2
2022/03/08 00:00:42;;;;;;;12.32;2.17;;;22.30;99.90;;;;;;6160403;23;20072;-80
2022/03/08 00:03:19;;;;;;;7.47;1.90;;;22.20;99.90;;;;;;6136998;23;19989;-81
2022/03/08 00:05:50;;;;;;;6.70;1.83;;;22.10;99.90;;;;;;6169375;23;20013;-80
2022/03/08 00:08:19;;;;;;;7.78;2.70;;;22.10;99.90;;;;;;6166446;23;20008;-78
2022/03/08 00:10:53;;;;;;;7.45;1.75;;;22.10;99.90;;;;;;6142644;23;20017;-78
2022/03/08 00:13:29;;;;;;;8.55;1.88;;;22.00;99.90;;;;;;6138966;23;20013;-76
2022/03/08 00:15:57;;;;;;;7.25;2.17;;;21.90;99.90;;;;;;6133467;23;20324;-77
2022/03/08 00:18:24;;;;;;;3.63;1.23;;;21.80;99.90;;;;;;6158816;23;19985;-77
2022/03/08 00:20:51;;;;;;;2.58;0.80;;;21.70;99.90;;;;;;6133018;23;20005;-79
2022/03/08 00:23:19;;;;;;;3.33;0.90;;;21.50;99.90;;;;;;6159453;23;20006;-79
2022/03/08 00:25:47;;;;;;;7.82;2.00;;;21.50;99.90;;;;;;6159096;23;20001;-81
2022/03/08 00:28:15;;;;;;;7.68;1.52;;;21.50;99.90;;;;;;6132608;23;20006;-79
2022/03/08 00:30:45;;;;;;;15.38;2.15;;;21.30;99.90;;;;;;6158830;23;19998;-80
2022/03/08 00:33:12;;;;;;;10.00;1.60;;;21.30;99.90;;;;;;6158908;23;20092;-79
2022/03/08 00:35:39;;;;;;;10.63;1.45;;;21.20;99.90;;;;;;6158738;23;20084;-79
2022/03/08 00:38:08;;;;;;;6.90;1.17;;;21.10;99.90;;;;;;6159654;23;20021;-80
2022/03/08 00:40:35;;;;;;;3.17;0.93;;;21.00;99.90;;;;;;6133153;23;20009;-79
2022/03/08 00:43:03;;;;;;;5.18;1.50;;;20.90;99.90;;;;;;6158609;23;19997;-78
2022/03/08 00:45:33;;;;;;;1.63;0.40;;;20.90;99.90;;;;;;6133444;23;20029;-80
2022/03/08 00:48:02;;;;;;;2.47;0.73;;;20.70;99.90;;;;;;6159286;23;20124;-83
2022/03/08 00:50:32;;;;;;;2.03;0.65;;;20.80;99.90;;;;;;6134278;23;20063;-82
2022/03/08 00:53:01;;;;;;;1.30;0.30;;;20.80;99.90;;;;;;6134517;23;20014;-81
2022/03/08 00:55:33;;;;;;;2.90;0.60;;;20.80;99.90;;;;;;6135574;23;20049;-82
2022/03/08 00:58:02;;;;;;;3.22;0.65;;;20.80;99.90;;;;;;6132322;23;20343;-82
2022/03/08 01:00:33;;;;;;;1.80;0.80;;;20.80;99.90;;;;;;6115332;23;20013;-80
2022/03/08 01:03:00;;;;;;;6.95;1.85;;;20.80;99.90;;;;;;6111660;23;20084;-79
2022/03/08 01:05:30;;;;;;;3.83;1.30;;;20.80;99.90;;;;;;6161574;23;20084;-76
2022/03/08 01:07:59;;;;;;;5.13;1.10;;;20.90;99.90;;;;;;6136649;23;20021;-78
2022/03/08 01:10:28;;;;;;;2.80;0.93;;;20.90;99.90;;;;;;6162538;23;20002;-78
2022/03/08 01:13:04;;;;;;;7.60;1.35;;;20.90;99.90;;;;;;6159844;23;20014;-80
2022/03/08 01:15:32;;;;;;;7.15;1.80;;;20.90;99.90;;;;;;6132039;23;20092;-78
2022/03/08 01:18:04;;;;;;;8.85;2.60;;;21.00;99.90;;;;;;6131720;23;20006;-79
2022/03/08 01:20:31;;;;;;;8.95;1.70;;;21.10;99.90;;;;;;6132021;23;20001;-79
2022/03/08 01:23:00;;;;;;;8.85;2.42;;;21.10;99.90;;;;;;6157381;23;20399;-79
2022/03/08 01:25:27;;;;;;;9.25;2.60;;;21.10;99.90;;;;;;6132266;23;20010;-76
2022/03/08 01:27:55;;;;;;;8.20;2.03;;;21.10;99.90;;;;;;6157605;23;20005;-75
2022/03/08 01:30:25;;;;;;;8.00;1.70;;;21.00;99.90;;;;;;6131308;23;20486;-77
2022/03/08 01:32:53;;;;;;;6.20;1.50;;;21.00;99.90;;;;;;6156989;23;20001;-77
2022/03/08 01:35:20;;;;;;;8.75;1.60;;;21.10;99.90;;;;;;6130913;23;20006;-77
2022/03/08 01:37:48;;;;;;;7.57;2.25;;;20.90;99.90;;;;;;6156984;23;20479;-78
2022/03/08 01:40:16;;;;;;;8.15;1.60;;;20.90;99.90;;;;;;6131102;23;20501;-78
2022/03/08 01:42:49;;;;;;;7.38;1.48;;;20.90;99.90;;;;;;6130800;23;20431;-77
2022/03/08 01:45:18;;;;;;;5.53;1.30;;;20.90;99.90;;;;;;6132399;23;20005;-75
2022/03/08 01:47:46;;;;;;;10.23;1.90;;;20.80;99.90;;;;;;6157226;23;20005;-75
2022/03/08 01:50:15;;;;;;;9.65;1.90;;;20.90;99.90;;;;;;6157061;23;20009;-76
2022/03/08 01:52:43;;;;;;;9.30;1.80;;;20.90;99.90;;;;;;6130314;23;20009;-75
2022/03/08 01:55:12;;;;;;;8.57;1.90;;;20.80;99.90;;;;;;6156653;23;20020;-75
2022/03/08 01:57:40;;;;;;;10.82;1.70;;;20.80;99.90;;;;;;6130456;23;20006;-75
2022/03/08 02:00:10;;;;;;;10.73;2.28;;;20.80;99.90;;;;;;6156649;23;20002;-75
2022/03/08 02:02:38;;;;;;;10.60;1.77;;;20.80;99.90;;;;;;6156544;23;20423;-74
2022/03/08 02:05:06;;;;;;;8.63;1.80;;;20.70;99.90;;;;;;6129514;23;20018;-76
2022/03/08 02:07:33;;;;;;;6.50;1.92;;;20.80;99.90;;;;;;6129672;23;20084;-74
2022/03/08 02:10:01;;;;;;;8.63;2.00;;;20.80;99.90;;;;;;6129891;23;20025;-74
2022/03/08 02:12:28;;;;;;;9.88;2.47;;;20.80;99.90;;;;;;6156515;23;20002;-75
2022/03/08 02:14:55;;;;;;;10.85;3.13;;;20.70;99.90;;;;;;6130201;23;20001;-75
2022/03/08 02:17:23;;;;;;;11.75;2.22;;;20.80;99.90;;;;;;6156414;23;20001;-75
2022/03/08 02:19:56;;;;;;;9.52;1.80;;;20.80;99.90;;;;;;6156060;23;20440;-75
2022/03/08 02:22:24;;;;;;;11.48;2.58;;;20.80;99.90;;;;;;6156671;23;20004;-74
2022/03/08 02:24:54;;;;;;;14.13;2.95;;;20.60;99.90;;;;;;6156436;23;20445;-76
2022/03/08 02:27:21;;;;;;;10.65;2.30;;;20.60;99.90;;;;;;6156316;23;20009;-76
2022/03/08 02:29:53;;;;;;;15.35;2.50;;;20.60;99.90;;;;;;6156483;23;20006;-77
2022/03/08 02:32:20;;;;;;;15.13;2.70;;;20.60;99.90;;;;;;6156883;23;20493;-75
2022/03/08 02:34:48;;;;;;;12.30;2.65;;;20.60;99.90;;;;;;6156680;23;20001;-75
2022/03/08 02:37:15;;;;;;;16.55;2.95;;;20.60;99.90;;;;;;6156765;23;19998;-75
2022/03/08 02:39:45;;;;;;;12.25;2.40;;;20.50;99.90;;;;;;6129807;23;20076;-76
2022/03/08 02:42:15;;;;;;;20.40;3.20;;;20.60;99.90;;;;;;6131710;23;20010;-76
2022/03/08 02:44:44;;;;;;;18.25;3.05;;;20.50;99.90;;;;;;6130853;23;20415;-75
2022/03/08 02:47:11;;;;;;;16.58;3.05;;;20.50;99.90;;;;;;6130127;23;20377;-75
2022/03/08 02:49:38;;;;;;;16.63;3.60;;;20.50;99.90;;;;;;6156286;23;20435;-74
2022/03/08 02:52:06;;;;;;;15.90;3.45;;;20.60;99.90;;;;;;6129900;23;20010;-74
2022/03/08 02:54:33;;;;;;;17.08;2.95;;;20.50;99.90;;;;;;6130267;23;20012;-74
2022/03/08 02:57:01;;;;;;;14.88;2.58;;;20.50;99.90;;;;;;6129980;23;20001;-75
2022/03/08 02:59:28;;;;;;;14.07;2.60;;;20.50;99.90;;;;;;6155799;23;20085;-75
2022/03/08 03:01:55;;;;;;;15.65;3.25;;;20.50;99.90;;;;;;6156326;23;19998;-75
2022/03/08 03:04:23;;;;;;;9.68;2.83;;;20.50;99.90;;;;;;6129646;23;20009;-74
2022/03/08 03:06:50;;;;;;;20.42;3.55;;;20.50;99.90;;;;;;6129925;23;20383;-75
2022/03/08 03:09:17;;;;;;;13.48;3.22;;;20.50;99.90;;;;;;6156029;23;20028;-75
2022/03/08 03:11:45;;;;;;;10.18;3.33;;;20.40;99.90;;;;;;6156260;23;20036;-74
2022/03/08 03:14:12;;;;;;;9.82;3.40;;;20.40;99.90;;;;;;6156068;23;20013;-74
2022/03/08 03:16:39;;;;;;;11.82;3.40;;;20.40;99.90;;;;;;6156328;23;19997;-74
2022/03/08 03:19:07;;;;;;;13.52;3.88;;;20.30;99.90;;;;;;6155955;23;19997;-74
2022/03/08 03:21:34;;;;;;;9.00;3.88;;;20.40;99.90;;;;;;6155853;23;20002;-73
2022/03/08 03:24:02;;;;;;;9.98;4.07;;;20.40;99.90;;;;;;6129641;23;20016;-75
2022/03/08 03:26:29;;;;;;;7.40;2.83;;;20.30;99.90;;;;;;6156189;23;20077;-74
2022/03/08 03:28:57;;;;;;;10.85;3.65;;;20.30;99.90;;;;;;6156155;23;20001;-74
2022/03/08 03:31:24;;;;;;;11.95;3.88;;;20.30;99.90;;;;;;6131179;23;20435;-74
2022/03/08 03:33:51;;;;;;;11.98;3.60;;;20.30;99.90;;;;;;6157801;23;20006;-74
2022/03/08 03:36:19;;;;;;;10.25;4.13;;;20.30;99.90;;;;;;6157783;23;20001;-73
2022/03/08 03:38:46;;;;;;;10.10;4.03;;;20.30;99.90;;;;;;6131184;23;20008;-73
2022/03/08 03:41:14;;;;;;;8.07;4.20;;;20.30;99.90;;;;;;6131442;23;20001;-73
2022/03/08 03:43:41;;;;;;;12.57;5.30;;;20.20;99.90;;;;;;6131077;23;20005;-75
2022/03/08 03:46:09;;;;;;;15.88;4.80;;;20.20;99.90;;;;;;6157502;23;20064;-74
2022/03/08 03:48:36;;;;;;;10.35;4.95;;;;;;;;;;6157484;23;20029;-73
2022/03/08 03:51:05;;;;;;;13.38;5.93;;;20.30;99.90;;;;;;6157365;23;20001;-73
2022/03/08 03:53:33;;;;;;;10.20;4.88;;;20.30;99.90;;;;;;6157322;23;20008;-74
2022/03/08 03:56:00;;;;;;;15.88;6.18;;;20.10;99.90;;;;;;6130833;23;20004;-74
2022/03/08 03:58:27;;;;;;;10.55;5.15;;;20.10;99.90;;;;;;6131635;23;20085;-75
2022/03/08 04:00:55;;;;;;;12.93;5.13;;;20.10;99.90;;;;;;6131193;23;20404;-76
2022/03/08 04:03:23;;;;;;;12.25;5.97;;;20.10;99.90;;;;;;6157483;23;20060;-76
2022/03/08 04:05:51;;;;;;;12.25;5.03;;;20.10;99.90;;;;;;6131055;23;20472;-76
2022/03/08 04:08:20;;;;;;;12.40;5.28;;;20.10;99.90;;;;;;6131440;23;20024;-75
2022/03/08 04:10:49;;;;;;;13.23;4.53;;;20.20;99.90;;;;;;6131595;23;20032;-75
2022/03/08 04:13:17;;;;;;;14.70;5.13;;;20.20;99.90;;;;;;6157698;23;20458;-75
2022/03/08 04:15:47;;;;;;;9.95;4.10;;;20.20;99.90;;;;;;6158196;23;19998;-75
2022/03/08 04:18:14;;;;;;;12.95;3.97;;;20.10;99.90;;;;;;6131174;23;20085;-76
2022/03/08 04:20:42;;;;;;;8.88;4.00;;;20.20;99.90;;;;;;6157853;23;20068;-75
2022/03/08 04:23:09;;;;;;;10.48;3.63;;;20.10;99.90;;;;;;6158268;23;20001;-75
2022/03/08 04:25:37;;;;;;;8.30;3.20;;;20.20;99.90;;;;;;6131351;23;20092;-75
2022/03/08 04:28:08;;;;;;;10.20;3.47;;;20.10;99.90;;;;;;6131116;23;20088;-75
2022/03/08 04:30:37;;;;;;;10.55;2.90;;;20.10;99.90;;;;;;6130783;23;20009;-75
2022/03/08 04:33:04;;;;;;;5.68;2.22;;;20.10;99.90;;;;;;6157745;23;20005;-73
2022/03/08 04:35:31;;;;;;;5.53;2.72;;;20.10;99.90;;;;;;6157548;23;20419;-75
2022/03/08 04:38:00;;;;;;;9.50;2.85;;;20.10;99.90;;;;;;6157462;23;20087;-74
2022/03/08 04:40:28;;;;;;;9.10;3.03;;;20.00;99.90;;;;;;6132685;23;20418;-75
2022/03/08 04:42:56;;;;;;;6.70;2.60;;;20.10;99.90;;;;;;6132151;23;20120;-76
2022/03/08 04:45:25;;;;;;;7.05;2.35;;;20.00;99.90;;;;;;6157941;23;20084;-74
2022/03/08 04:47:57;;;;;;;7.30;2.40;;;20.10;99.90;;;;;;6157764;23;20006;-76
2022/03/08 04:50:24;;;;;;;7.88;2.53;;;20.00;99.90;;;;;;6130749;23;20084;-77
2022/03/08 04:52:52;;;;;;;7.25;1.70;;;20.00;99.90;;;;;;6131787;23;20009;-76
2022/03/08 04:55:20;;;;;;;8.38;2.58;;;20.00;99.90;;;;;;6131820;23;20005;-77
2022/03/08 04:57:48;;;;;;;9.10;2.50;;;20.00;99.90;;;;;;6157853;23;20001;-78
2022/03/08 05:00:16;;;;;;;8.35;2.00;;;20.00;99.90;;;;;;6134798;23;20028;-77
2022/03/08 05:02:45;;;;;;;5.13;1.90;;;20.00;99.90;;;;;;6157920;23;20032;-77
2022/03/08 05:05:14;;;;;;;7.32;2.33;;;20.10;99.90;;;;;;6157451;23;20355;-77
2022/03/08 05:07:42;;;;;;;6.82;2.05;;;20.00;99.90;;;;;;6132275;23;20006;-77
2022/03/08 05:10:11;;;;;;;9.20;2.97;;;20.00;99.90;;;;;;6131396;23;20009;-77
2022/03/08 05:12:43;;;;;;;8.57;2.40;;;20.00;99.90;;;;;;6131258;23;20009;-79
2022/03/08 05:15:11;;;;;;;7.50;2.20;;;20.10;99.90;;;;;;6131287;23;20006;-78
2022/03/08 05:17:38;;;;;;;6.88;1.73;;;20.10;99.90;;;;;;6131325;23;20096;-78
2022/03/08 05:20:07;;;;;;;7.13;2.05;;;20.00;99.90;;;;;;6131622;23;20002;-79
2022/03/08 05:22:35;;;;;;;8.20;2.47;;;20.00;99.90;;;;;;6132123;23;20002;-77
2022/03/08 05:25:04;;;;;;;5.72;1.83;;;20.00;99.90;;;;;;6157675;23;20017;-79
2022/03/08 05:27:32;;;;;;;7.82;1.67;;;20.10;99.90;;;;;;6131584;23;20009;-78
2022/03/08 05:30:00;;;;;;;5.07;1.73;;;20.10;99.90;;;;;;6131624;23;20001;-77
2022/03/08 05:32:28;;;;;;;4.88;1.20;;;20.00;99.90;;;;;;6157236;23;19997;-79
2022/03/08 05:34:56;;;;;;;4.22;1.52;;;20.10;99.90;;;;;;6130919;23;20009;-78
2022/03/08 05:37:36;;;;;;;3.72;1.30;;;19.90;99.90;;;;;;6157831;23;20012;-80
2022/03/08 05:40:09;;;;;;;2.92;0.75;;;19.90;99.90;;;;;;6158481;23;20368;-79
2022/03/08 05:42:39;;;;;;;3.08;0.85;;;19.80;99.90;;;;;;6131157;23;20442;-78
2022/03/08 05:45:08;;;;;;;3.85;1.48;;;19.90;99.90;;;;;;6157392;23;20456;-78
2022/03/08 05:47:38;;;;;;;2.97;1.00;;;19.90;99.90;;;;;;6157122;23;19998;-78
2022/03/08 05:50:07;;;;;;;3.83;0.90;;;19.80;99.90;;;;;;6130857;23;20101;-79
2022/03/08 05:52:34;;;;;;;2.55;0.80;;;19.90;99.90;;;;;;6156231;23;20036;-77
2022/03/08 05:55:03;;;;;;;3.03;1.25;;;19.80;99.90;;;;;;6156606;23;20001;-78
2022/03/08 05:57:32;;;;;;;2.47;0.40;;;19.90;99.90;;;;;;6156926;23;20427;-77
2022/03/08 06:00:00;;;;;;;2.67;1.13;;;19.80;99.90;;;;;;6129693;23;20006;-77
2022/03/08 06:02:28;;;;;;;2.80;0.70;;;19.80;99.90;;;;;;6131261;23;20002;-77
2022/03/08 06:04:55;;;;;;;2.47;0.88;;;19.70;99.90;;;;;;6130094;23;20092;-77
2022/03/08 06:07:22;;;;;;;4.32;0.98;;;19.70;99.90;;;;;;6129552;23;20025;-77
2022/03/08 06:09:50;;;;;;;3.97;1.13;;;19.70;99.90;;;;;;6156351;23;20073;-75
2022/03/08 06:12:17;;;;;;;3.95;0.85;;;19.70;99.90;;;;;;6129775;23;20005;-77
2022/03/08 06:14:45;;;;;;;2.25;1.02;;;19.70;99.90;;;;;;6156374;23;20018;-76
2022/03/08 06:17:12;;;;;;;6.00;3.45;;;19.70;99.90;;;;;;6157028;23;20022;-76
2022/03/08 06:19:39;;;;;;;5.68;1.75;;;19.70;99.90;;;;;;6130010;23;20454;-77
2022/03/08 06:22:07;;;;;;;6.32;1.25;;;19.70;99.90;;;;;;6130650;23;20006;-77
2022/03/08 06:24:34;;;;;;;7.45;1.92;;;19.70;99.90;;;;;;6157235;23;20063;-76
2022/03/08 06:27:05;;;;;;;3.85;1.15;;;19.60;99.90;;;;;;6130755;23;20012;-77
2022/03/08 06:29:32;;;;;;;4.72;1.30;;;19.60;99.90;;;;;;6157733;23;20006;-76
2022/03/08 06:31:59;;;;;;;8.43;1.70;;;19.60;99.90;;;;;;6130423;23;20033;-77
2022/03/08 06:34:27;;;;;;;9.35;1.48;;;19.60;99.90;;;;;;6129666;23;20017;-76
2022/03/08 06:36:55;;;;;;;7.60;1.52;;;19.60;99.90;;;;;;6130064;23;20009;-77
2022/03/08 06:39:22;;;;;;;8.18;1.75;;;19.60;99.90;;;;;;6130536;23;20083;-76
2022/03/08 06:41:50;;;;;;;6.65;1.70;;;19.60;99.90;;;;;;6130204;23;20026;-76
2022/03/08 06:44:17;;;;;;;5.68;1.23;;;19.60;99.90;;;;;;6130312;23;20497;-76
2022/03/08 06:46:46;;;;;;;6.05;1.33;;;19.50;99.90;;;;;;6157141;23;20101;-76
2022/03/08 06:49:16;;;;;;;11.18;1.85;;;19.60;99.90;;;;;;6155965;23;20012;-77
2022/03/08 06:51:43;;;;;;;7.32;1.52;;;19.60;99.90;;;;;;6130950;23;20006;-78
2022/03/08 06:54:12;;;;;;;3.20;1.50;;;19.70;99.90;;;;;;6129680;23;20338;-77
2022/03/08 06:56:40;;;;;;;8.35;1.77;;;19.60;99.90;;;;;;6131351;23;20032;-78
2022/03/08 06:59:07;;;;;;;6.93;1.98;;;19.70;99.90;;;;;;6157406;23;20012;-78
2022/03/08 07:01:35;;;;;;;5.55;1.92;;;19.60;99.90;;;;;;6157597;23;20423;-77
2022/03/08 07:04:02;;;;;;;7.20;1.70;;;19.60;99.90;;;;;;6156918;23;20001;-78
2022/03/08 07:06:30;;;;;;;4.35;1.40;;;19.60;99.90;;;;;;6159734;23;20494;-75
2022/03/08 07:08:58;;;;;;;4.32;1.25;;;19.60;99.90;;;;;;6131932;23;20085;-76
2022/03/08 07:11:25;;;;;;;5.40;1.10;;;19.60;99.90;;;;;;6156389;23;20029;-75
2022/03/08 07:13:53;;;;;;;2.47;0.98;;;19.60;99.90;;;;;;6131947;23;20009;-78
2022/03/08 07:16:23;;;;;;;3.45;1.50;;;19.60;99.90;;;;;;6157033;23;20084;-79
2022/03/08 07:18:50;;;;;;;2.92;0.90;;;19.60;99.90;;;;;;6131648;23;20013;-79
2022/03/08 07:21:19;;;;;;;3.13;1.00;;;19.60;99.90;;;;;;6131546;23;20028;-77
2022/03/08 07:23:46;;;;;;;5.97;0.98;;;19.60;99.90;;;;;;6107184;23;20017;-78
2022/03/08 07:26:14;;;;;;;4.82;1.30;;;19.60;99.90;;;;;;6157588;23;20009;-78
2022/03/08 07:28:41;;;;;;;3.05;0.93;;;19.60;99.90;;;;;;6132216;23;20379;-78
2022/03/08 07:31:09;;;;;;;4.85;1.33;;;19.60;99.90;;;;;;6131562;23;20017;-78
2022/03/08 07:33:36;;;;;;;4.28;0.82;;;19.60;99.90;;;;;;6132296;23;20445;-79
2022/03/08 07:36:04;;;;;;;1.90;0.50;;;19.70;99.90;;;;;;6132548;23;20100;-77
2022/03/08 07:38:31;;;;;;;2.50;0.95;;;19.70;99.90;;;;;;6132821;23;20012;-76
2022/03/08 07:40:59;;;;;;;1.65;0.68;;;19.70;99.90;;;;;;6132267;23;20006;-78
2022/03/08 07:43:26;;;;;;;0.90;0.32;;;19.80;99.90;;;;;;6131973;23;20093;-77
2022/03/08 07:45:53;;;;;;;1.90;0.70;;;19.80;99.90;;;;;;6131606;23;20037;-78
2022/03/08 07:48:26;;;;;;;2.38;0.70;;;19.80;99.90;;;;;;6142748;23;20010;-78
2022/03/08 07:50:53;;;;;;;0.95;0.50;;;19.80;99.90;;;;;;6131490;23;20420;-78
2022/03/08 07:53:20;;;;;;;1.42;0.50;;;19.80;99.90;;;;;;6159399;23;20002;-78
2022/03/08 07:55:48;;;;;;;1.73;0.55;;;19.80;99.90;;;;;;6159487;23;19997;-79
2022/03/08 07:58:16;;;;;;;1.27;0.60;;;19.80;99.90;;;;;;6158544;23;19997;-78
2022/03/08 08:00:43;;;;;;;3.00;1.17;;;19.80;99.90;;;;;;6131480;23;20005;-77
2022/03/08 08:03:11;;;;;;;1.35;1.00;;;19.80;99.90;;;;;;6157889;23;20002;-77
2022/03/08 08:05:39;;;;;;;2.92;0.50;;;19.80;99.90;;;;;;6132319;23;20025;-78
2022/03/08 08:08:07;;;;;;;2.97;0.90;;;19.80;99.90;;;;;;6158370;23;20005;-78
2022/03/08 08:10:35;;;;;;;2.42;0.75;;;19.80;99.90;;;;;;6162673;23;20075;-80
2022/03/08 08:13:02;;;;;;;2.22;0.90;;;19.80;99.90;;;;;;6160475;23;20005;-79
2022/03/08 08:15:30;;;;;;;1.33;0.50;;;19.80;99.90;;;;;;6133075;23;20013;-78
2022/03/08 08:17:57;;;;;;;1.50;0.60;;;19.70;99.90;;;;;;6133257;23;20331;-78
2022/03/08 08:20:25;;;;;;;1.35;0.43;;;19.70;99.90;;;;;;6133660;23;20002;-80
2022/03/08 08:22:52;;;;;;;2.10;0.70;;;19.70;99.90;;;;;;6162241;23;20391;-78
2022/03/08 08:25:19;;;;;;;1.85;0.60;;;19.70;99.90;;;;;;6136146;23;20033;-80
2022/03/08 08:27:48;;;;;;;1.08;0.47;;;19.70;99.90;;;;;;6137697;23;20028;-80
2022/03/08 08:30:18;;;;;;;2.00;0.73;;;19.60;99.90;;;;;;6161056;23;20009;-79
2022/03/08 08:32:46;;;;;;;1.70;0.80;;;19.60;99.90;;;;;;6133115;23;20426;-78
2022/03/08 08:35:13;;;;;;;1.33;0.80;;;19.70;99.90;;;;;;6159768;23;19998;-78
2022/03/08 08:37:41;;;;;;;2.70;0.50;;;19.60;99.90;;;;;;6133705;23;20172;-78
2022/03/08 08:40:09;;;;;;;1.15;0.55;;;19.70;99.90;;;;;;6132693;23;20033;-78
2022/03/08 08:42:36;;;;;;;1.00;0.50;;;19.70;99.90;;;;;;6133029;23;20060;-79
2022/03/08 08:45:04;;;;;;;2.60;0.82;;;19.70;99.90;;;;;;6158642;23;19997;-77
2022/03/08 08:47:31;;;;;;;2.22;0.60;;;19.70;99.90;;;;;;6131656;23;20483;-77
2022/03/08 08:49:59;;;;;;;0.60;0.40;;;19.80;99.90;;;;;;6158753;23;20002;-76
2022/03/08 08:52:26;;;;;;;1.15;0.50;;;19.80;99.90;;;;;;6132294;23;20002;-77
2022/03/08 08:54:53;;;;;;;2.30;0.80;;;19.80;99.90;;;;;;6158236;23;20427;-78
2022/03/08 08:57:21;;;;;;;1.63;0.70;;;19.80;99.90;;;;;;6134907;23;20006;-76
2022/03/08 08:59:49;;;;;;;0.68;0.40;;;19.80;99.90;;;;;;6161498;23;20423;-78
2022/03/08 09:02:19;;;;;;;0.93;0.50;;;19.80;99.90;;;;;;6135399;23;20107;-80
2022/03/08 09:04:46;;;;;;;0.80;0.30;;;19.80;99.90;;;;;;6110713;23;20013;-78
2022/03/08 09:07:13;;;;;;;1.85;0.50;;;19.80;99.90;;;;;;6160411;23;20333;-80
2022/03/08 09:09:41;;;;;;;0.38;0.20;;;19.80;99.90;;;;;;6133714;23;20005;-78
2022/03/08 09:12:08;;;;;;;1.25;0.30;;;19.80;99.90;;;;;;6132389;23;20153;-79
2022/03/08 09:14:36;;;;;;;2.10;0.93;;;19.80;99.90;;;;;;6158783;23;20020;-79
2022/03/08 09:17:03;;;;;;;2.33;0.60;;;19.70;99.90;;;;;;6132234;23;20033;-79
2022/03/08 09:19:37;;;;;;;2.10;0.52;;;19.60;99.90;;;;;;6137851;23;20017;-78
2022/03/08 09:22:04;;;;;;;1.25;0.32;;;19.50;99.90;;;;;;6124284;23;20024;-78
2022/03/08 09:24:35;;;;;;;1.90;0.40;;;19.50;99.90;;;;;;6168103;23;20056;-80
2022/03/08 09:27:04;;;;;;;2.38;0.60;;;19.40;99.90;;;;;;6160387;23;20392;-78
2022/03/08 09:29:32;;;;;;;1.95;0.60;;;19.40;99.90;;;;;;6159790;23;20009;-79
2022/03/08 09:32:00;;;;;;;1.20;0.40;;;19.40;99.90;;;;;;6160371;23;20006;-79
2022/03/08 09:34:27;;;;;;;3.17;0.70;;;19.30;99.90;;;;;;6133444;23;20010;-78
2022/03/08 09:36:56;;;;;;;2.33;0.38;;;19.40;99.90;;;;;;6160015;23;20021;-78
2022/03/08 09:39:23;;;;;;;2.33;0.55;;;19.30;99.90;;;;;;6136104;23;20021;-79
2022/03/08 09:41:55;;;;;;;1.20;0.50;;;19.30;99.90;;;;;;6164822;23;20056;-79
2022/03/08 09:44:26;;;;;;;1.83;0.60;;;19.30;99.90;;;;;;6161590;23;20010;-79
2022/03/08 09:46:54;;;;;;;1.15;0.40;;;19.30;99.90;;;;;;6158189;23;20005;-78
2022/03/08 09:49:21;;;;;;;1.95;0.52;;;19.30;99.90;;;;;;6133713;23;20009;-79
2022/03/08 09:51:51;;;;;;;2.38;0.40;;;19.30;99.90;;;;;;6160415;23;20009;-78
2022/03/08 09:54:19;;;;;;;1.30;0.65;;;19.30;99.90;;;;;;6161292;23;20006;-78
2022/03/08 09:56:47;;;;;;;2.45;0.60;;;19.30;99.90;;;;;;6164481;23;20024;-78
2022/03/08 09:59:21;;;;;;;3.03;0.70;;;;;;;;;;6157388;23;19998;-79
2022/03/08 10:01:49;;;;;;;2.13;0.50;;;;;;;;;;6138004;23;20570;-80
2022/03/08 10:04:20;;;;;;;3.55;0.60;;;;;;;;;;6134391;23;20009;-80
2022/03/08 10:06:47;;;;;;;4.32;0.70;;;;;;;;;;6137244;23;20017;-80
2022/03/08 10:09:19;;;;;;;2.63;1.08;;;;;;;;;;6163817;23;20008;-79
2022/03/08 10:11:46;;;;;;;4.03;0.88;;;;;;;;;;6134163;23;20006;-80
2022/03/08 10:14:15;;;;;;;5.65;0.77;;;;;;;;;;6160121;23;20006;-79
2022/03/08 10:16:42;;;;;;;3.35;0.60;;;;;;;;;;6134837;23;20005;-80
2022/03/08 10:19:17;;;;;;;3.58;0.70;;;;;;;;;;6137408;23;20016;-80
2022/03/08 10:21:51;;;;;;;2.47;0.60;;;;;;;;;;6134587;23;20350;-80
2022/03/08 10:24:24;;;;;;;4.88;1.02;;;;;;;;;;6132386;23;20016;-80
2022/03/08 10:26:53;;;;;;;2.67;0.70;;;;;;;;;;6133928;23;20028;-79
2022/03/08 10:29:49;;;;;;;3.63;0.88;;;;;;;;;;6132015;23;20523;-79
2022/03/08 10:32:19;;;;;;;2.20;1.10;;;;;;;;;;6130968;23;20088;-78
2022/03/08 10:34:48;;;;;;;3.50;0.95;;;;;;;;;;6133578;23;20006;-78
2022/03/08 10:37:19;;;;;;;6.18;1.30;;;;;;;;;;6161536;23;20005;-78
2022/03/08 10:39:53;;;;;;;6.72;1.80;;;;;;;;;;6133887;23;20060;-78
2022/03/08 10:42:31;;;;;;;7.78;1.20;;;;;;;;;;6137271;23;20013;-78
2022/03/08 10:45:05;;;;;;;4.85;1.08;;;;;;;;;;6161468;23;20033;-78
2022/03/08 10:47:43;;;;;;;7.50;1.17;;;;;;;;;;6176249;23;20001;-78
2022/03/08 10:50:15;;;;;;;5.18;1.30;;;;;;;;;;6150368;23;20005;-78
2022/03/08 10:52:44;;;;;;;6.80;1.27;;;;;;;;;;6142749;23;20006;-78
2022/03/08 10:55:20;;;;;;;4.53;0.80;;;;;;;;;;6164432;23;20177;-77
2022/03/08 10:57:54;;;;;;;6.40;1.00;;;;;;;;;;6135777;23;20001;-79
2022/03/08 11:00:23;;;;;;;6.47;1.25;;;;;;;;;;6135348;23;20011;-79
2022/03/08 11:02:55;;;;;;;6.38;1.13;;;;;;;;;;6161648;23;20053;-79
2022/03/08 11:05:24;;;;;;;6.32;1.02;;;;;;;;;;6164254;23;20009;-79
2022/03/08 11:07:53;;;;;;;4.35;0.80;;;;;;;;;;6167680;23;20077;-79
2022/03/08 11:10:21;;;;;;;7.72;1.17;;;;;;;;;;6122913;23;20013;-79
2022/03/08 11:12:49;;;;;;;6.82;1.20;;;;;;;;;;6142349;23;20506;-80
2022/03/08 11:15:17;;;;;;;4.82;1.30;;;;;;;;;;6140864;23;20005;-79
2022/03/08 11:17:45;;;;;;;6.25;0.98;;;;;;;;;;6141226;23;20002;-80
2022/03/08 11:20:13;;;;;;;6.18;1.20;;;;;;;;;;6136546;23;20005;-80
2022/03/08 11:22:41;;;;;;;7.53;1.15;;;;;;;;;;6136537;23;20005;-80
2022/03/08 11:25:09;;;;;;;5.03;1.27;;;;;;;;;;6134980;23;20009;-79
2022/03/08 11:27:37;;;;;;;3.10;0.77;;;;;;;;;;6165581;23;20009;-80
2022/03/08 11:30:05;;;;;;;2.47;0.80;;;;;;;;;;6139657;23;20097;-80
2022/03/08 11:32:39;;;;;;;4.10;0.73;;;;;;;;;;6167871;23;19998;-80
2022/03/08 11:35:06;;;;;;;5.63;1.13;;;;;;;;;;6144346;23;20016;-80
2022/03/08 11:37:38;;;;;;;3.08;0.77;;;;;;;;;;6140209;23;20431;-80
2022/03/08 11:40:07;;;;;;;1.90;0.40;;;;;;;;;;6166247;23;19998;-80
2022/03/08 11:42:36;;;;;;;2.75;0.65;;;;;;;;;;6138190;23;20006;-80
2022/03/08 11:45:11;;;;;;;1.63;0.80;;;;;;;;;;6165181;23;20009;-81
2022/03/08 11:47:38;;;;;;;2.85;0.60;;;;;;;;;;6141680;23;20017;-80
2022/03/08 11:50:07;;;;;;;2.28;0.60;;;18.60;99.90;;;;;;6140285;23;20093;-80
2022/03/08 11:52:36;;;;;;;2.30;0.68;;;18.70;99.90;;;;;;6142010;23;20044;-81
2022/03/08 11:55:08;;;;;;;2.95;0.50;;;18.70;99.90;;;;;;6136739;23;20029;-80
2022/03/08 11:57:56;;;;;;;3.60;0.77;;;18.70;99.90;;;;;;6135568;23;20001;-80
2022/03/08 12:00:33;;;;;;;2.67;0.60;;;18.60;99.90;;;;;;6165633;23;20105;-80
2022/03/08 12:03:04;;;;;;;2.60;0.52;;;18.60;99.90;;;;;;6163934;23;20012;-79
2022/03/08 12:06:03;;;;;;;4.22;0.90;;;18.50;99.90;;;;;;6136329;23;20014;-80
2022/03/08 12:08:41;;;;;;;3.17;0.60;;;18.60;99.90;;;;;;6133454;23;20005;-80
2022/03/08 12:11:23;;;;;;;4.35;0.57;;;18.50;99.90;;;;;;6159846;23;20009;-80
2022/03/08 12:14:13;;;;;;;1.77;0.40;;;18.50;99.90;;;;;;6137191;23;20020;-79
2022/03/08 12:16:43;;;;;;;1.85;0.40;;;18.40;99.90;;;;;;6138829;23;20012;-78
2022/03/08 12:19:13;;;;;;;3.83;0.73;;;18.40;99.90;;;;;;6140342;23;20006;-79
2022/03/08 12:21:44;;;;;;;3.50;0.70;;;18.40;99.90;;;;;;6170635;23;19997;-78
2022/03/08 12:24:21;;;;;;;3.53;0.40;;;18.40;99.90;;;;;;6123676;23;20009;-78
2022/03/08 12:26:58;;;;;;;3.05;0.50;;;18.30;99.90;;;;;;6146724;23;19993;-81
2022/03/08 12:30:05;;;;;;;2.10;0.70;;;18.30;99.90;;;;;;6145807;23;20033;-77
2022/03/08 12:32:36;;;;;;;2.70;0.70;;;18.30;99.90;;;;;;6140900;23;20005;-78
2022/03/08 12:35:22;;;;;;;4.72;0.73;;;18.20;99.90;;;;;;6173685;23;20009;-79
2022/03/08 12:38:05;;;;;;;2.05;0.50;;;;;;;;;;6170055;23;19997;-79
2022/03/08 12:40:40;;;;;;;3.33;0.52;;;;;;;;;;6140124;23;20009;-78
2022/03/08 12:43:09;;;;;;;1.77;0.50;;;;;;;;;;6115304;23;20339;-79
2022/03/08 12:45:42;;;;;;;5.35;0.60;;;;;;;;;;6138365;23;20346;-78
2022/03/08 12:48:13;;;;;;;2.22;0.60;;;;;;;;;;6112939;23;20447;-79
2022/03/08 12:50:57;;;;;;;5.35;0.70;;;;;;;;;;6158037;23;20013;-78
2022/03/08 12:53:29;;;;;;;1.50;0.70;;;;;;;;;;6136745;23;20065;-79
2022/03/08 12:56:10;;;;;;;2.50;0.68;;;;;;;;;;6164748;23;20002;-80
2022/03/08 12:58:42;;;;;;;3.55;0.57;;;;;;;;;;6138562;23;20002;-79
2022/03/08 13:01:14;;;;;;;2.42;0.68;;;;;;;;;;6135263;23;20025;-79
2022/03/08 13:03:47;;;;;;;3.25;0.43;;;18.10;99.90;;;;;;6138887;23;20085;-79
2022/03/08 13:06:15;;;;;;;1.65;0.40;;;18.20;99.90;;;;;;6115001;23;20068;-79
2022/03/08 13:08:43;;;;;;;2.55;0.70;;;18.10;99.90;;;;;;6136913;23;20028;-79
2022/03/08 13:11:18;;;;;;;2.65;0.43;;;18.10;99.90;;;;;;6135584;23;20013;-78
2022/03/08 13:13:45;;;;;;;2.33;0.85;;;18.10;99.90;;;;;;6161399;23;20065;-78